Strona główna
METAR-TAF:

METAR-TAF

Lotnisko :

Port lotniczy Sion

Sion, Szwajcaria

Szerokość geograficzna: 46-13N, Długość geograficzna: 007-20E, wysokość: 482 m

Aktualna obserwacja pogody

Raport powstał 32 minut temu, godzina 11:20 UTC
Cisza
Temperatura 6°C
Wilgotność 70%
Ciśnienie 1014 hPa
Widzialność 10 km lub więcej
Brak chmur poniżej 1500 m i brak chmur cumulonimbus

METAR: LSGS 161120Z 00000KT CAVOK 06/01 Q1014

czas: 12:52 (11:52 UTC)

Prognoza

Raport powstał 27 minut temu, godzina 11:25 UTC
Prognoza ważna od 16 godzina 12 UTC do 16 godzina 21 UTC
Wiatr 5 kt od wschód
Widzialność 10 km lub więcej
Brak chmur poniżej 1500 m i brak chmur cumulonimbus

TAF: LSGS 161125Z 1612/1621 09005KT CAVOK

Obserwacja i prognoza pogody dla ponad 4000 lotnisk (raport METAR i TAF).

Dostępne stacje oznaczono żółtymi i czerwonymi punktami na mapie.

Najedź kursorem aby zobaczyć nazwę stacji.

Kliknij aby zobaczyć obserwacje i prognozy pogody.

Aby zmienić mapę: kliknij na zielony przycisk z czarnym krzyżykiem, aby powiększyć; na zielony przycisk z myślnikiem, aby pomniejszyć; na zielone strzałki, aby przejść do map sąsiednich.


METAR-TAF: